sensor_id;sensor_type;location;lat;lon;timestamp;temperature;humidity
46356;DHT22;32066;49.474;11.106;2023-04-15T00:00:13;11.70;91.30
46356;DHT22;32066;49.474;11.106;2023-04-15T00:02:44;11.70;91.30
46356;DHT22;32066;49.474;11.106;2023-04-15T00:05:13;11.70;91.20
46356;DHT22;32066;49.474;11.106;2023-04-15T00:07:41;11.70;91.20
46356;DHT22;32066;49.474;11.106;2023-04-15T00:10:11;11.70;91.20
46356;DHT22;32066;49.474;11.106;2023-04-15T00:12:42;11.70;91.10
46356;DHT22;32066;49.474;11.106;2023-04-15T00:15:11;11.70;91.10
46356;DHT22;32066;49.474;11.106;2023-04-15T00:17:41;11.70;91.10
46356;DHT22;32066;49.474;11.106;2023-04-15T00:20:10;11.70;91.00
46356;DHT22;32066;49.474;11.106;2023-04-15T00:22:39;11.70;91.00
46356;DHT22;32066;49.474;11.106;2023-04-15T00:25:08;11.70;90.90
46356;DHT22;32066;49.474;11.106;2023-04-15T00:27:37;11.70;90.90
46356;DHT22;32066;49.474;11.106;2023-04-15T00:30:09;11.70;90.90
46356;DHT22;32066;49.474;11.106;2023-04-15T00:32:38;11.70;90.90
46356;DHT22;32066;49.474;11.106;2023-04-15T00:35:07;11.70;90.90
46356;DHT22;32066;49.474;11.106;2023-04-15T00:37:36;11.70;90.80
46356;DHT22;32066;49.474;11.106;2023-04-15T00:40:10;11.70;90.80
46356;DHT22;32066;49.474;11.106;2023-04-15T00:42:40;11.70;90.70
46356;DHT22;32066;49.474;11.106;2023-04-15T00:45:12;11.70;90.80
46356;DHT22;32066;49.474;11.106;2023-04-15T00:47:41;11.70;90.80
46356;DHT22;32066;49.474;11.106;2023-04-15T00:50:11;11.70;90.80
46356;DHT22;32066;49.474;11.106;2023-04-15T00:52:40;11.70;90.80
46356;DHT22;32066;49.474;11.106;2023-04-15T00:55:09;11.70;90.80
46356;DHT22;32066;49.474;11.106;2023-04-15T00:57:38;11.70;90.70
46356;DHT22;32066;49.474;11.106;2023-04-15T01:00:11;11.70;90.70
46356;DHT22;32066;49.474;11.106;2023-04-15T01:02:41;11.70;90.70
46356;DHT22;32066;49.474;11.106;2023-04-15T01:05:10;11.70;90.70
46356;DHT22;32066;49.474;11.106;2023-04-15T01:07:41;11.70;90.70
46356;DHT22;32066;49.474;11.106;2023-04-15T01:10:10;11.70;90.70
46356;DHT22;32066;49.474;11.106;2023-04-15T01:12:41;11.70;90.70
46356;DHT22;32066;49.474;11.106;2023-04-15T01:15:12;11.70;90.70
46356;DHT22;32066;49.474;11.106;2023-04-15T01:17:41;11.70;90.70
46356;DHT22;32066;49.474;11.106;2023-04-15T01:20:10;11.70;90.70
46356;DHT22;32066;49.474;11.106;2023-04-15T01:22:40;11.70;90.70
46356;DHT22;32066;49.474;11.106;2023-04-15T01:25:12;11.70;90.70
46356;DHT22;32066;49.474;11.106;2023-04-15T01:27:45;11.70;90.70
46356;DHT22;32066;49.474;11.106;2023-04-15T01:30:14;11.70;90.70
46356;DHT22;32066;49.474;11.106;2023-04-15T01:32:43;11.70;90.60
46356;DHT22;32066;49.474;11.106;2023-04-15T01:35:12;11.70;90.70
46356;DHT22;32066;49.474;11.106;2023-04-15T01:37:41;11.70;90.70
46356;DHT22;32066;49.474;11.106;2023-04-15T01:40:10;11.70;90.70
46356;DHT22;32066;49.474;11.106;2023-04-15T01:42:40;11.70;90.70
46356;DHT22;32066;49.474;11.106;2023-04-15T01:45:11;11.60;90.60
46356;DHT22;32066;49.474;11.106;2023-04-15T01:47:40;11.60;90.60
46356;DHT22;32066;49.474;11.106;2023-04-15T01:50:09;11.60;90.60
46356;DHT22;32066;49.474;11.106;2023-04-15T01:52:38;11.60;90.60
46356;DHT22;32066;49.474;11.106;2023-04-15T01:55:08;11.60;90.70
46356;DHT22;32066;49.474;11.106;2023-04-15T01:57:37;11.60;90.70
46356;DHT22;32066;49.474;11.106;2023-04-15T02:00:07;11.60;90.60
46356;DHT22;32066;49.474;11.106;2023-04-15T02:02:42;11.60;90.60
46356;DHT22;32066;49.474;11.106;2023-04-15T02:05:10;11.60;90.60
46356;DHT22;32066;49.474;11.106;2023-04-15T02:07:39;11.60;90.60
46356;DHT22;32066;49.474;11.106;2023-04-15T02:10:09;11.60;90.60
46356;DHT22;32066;49.474;11.106;2023-04-15T02:12:38;11.60;90.60
46356;DHT22;32066;49.474;11.106;2023-04-15T02:15:08;11.60;90.50
46356;DHT22;32066;49.474;11.106;2023-04-15T02:17:37;11.60;90.50
46356;DHT22;32066;49.474;11.106;2023-04-15T02:20:13;11.60;90.50
46356;DHT22;32066;49.474;11.106;2023-04-15T02:22:42;11.60;90.50
46356;DHT22;32066;49.474;11.106;2023-04-15T02:25:14;11.60;90.40
46356;DHT22;32066;49.474;11.106;2023-04-15T02:27:44;11.60;90.40
46356;DHT22;32066;49.474;11.106;2023-04-15T02:30:16;11.60;90.40
46356;DHT22;32066;49.474;11.106;2023-04-15T02:32:45;11.60;90.40
46356;DHT22;32066;49.474;11.106;2023-04-15T02:35:16;11.60;90.40
46356;DHT22;32066;49.474;11.106;2023-04-15T02:37:46;11.60;90.40
46356;DHT22;32066;49.474;11.106;2023-04-15T02:40:14;11.60;90.40
46356;DHT22;32066;49.474;11.106;2023-04-15T02:42:44;11.60;90.40
46356;DHT22;32066;49.474;11.106;2023-04-15T02:45:15;11.60;90.40
46356;DHT22;32066;49.474;11.106;2023-04-15T02:47:48;11.60;90.40
46356;DHT22;32066;49.474;11.106;2023-04-15T02:50:19;11.60;90.40
46356;DHT22;32066;49.474;11.106;2023-04-15T02:52:50;11.60;90.40
46356;DHT22;32066;49.474;11.106;2023-04-15T02:55:19;11.60;90.40
46356;DHT22;32066;49.474;11.106;2023-04-15T02:57:47;11.60;90.40
46356;DHT22;32066;49.474;11.106;2023-04-15T03:00:16;11.60;90.40
46356;DHT22;32066;49.474;11.106;2023-04-15T03:02:46;11.60;90.40
46356;DHT22;32066;49.474;11.106;2023-04-15T03:05:23;11.60;90.40
46356;DHT22;32066;49.474;11.106;2023-04-15T03:07:52;11.60;90.40
46356;DHT22;32066;49.474;11.106;2023-04-15T03:10:21;11.60;90.40
46356;DHT22;32066;49.474;11.106;2023-04-15T03:12:50;11.60;90.30
46356;DHT22;32066;49.474;11.106;2023-04-15T03:15:21;11.60;90.30
46356;DHT22;32066;49.474;11.106;2023-04-15T03:17:51;11.60;90.30
46356;DHT22;32066;49.474;11.106;2023-04-15T03:20:23;11.60;90.30
46356;DHT22;32066;49.474;11.106;2023-04-15T03:22:52;11.60;90.30
46356;DHT22;32066;49.474;11.106;2023-04-15T03:25:22;11.60;90.40
46356;DHT22;32066;49.474;11.106;2023-04-15T03:27:52;11.50;90.40
46356;DHT22;32066;49.474;11.106;2023-04-15T03:30:20;11.50;90.40
46356;DHT22;32066;49.474;11.106;2023-04-15T03:32:50;11.60;90.40
46356;DHT22;32066;49.474;11.106;2023-04-15T03:35:19;11.60;90.40
46356;DHT22;32066;49.474;11.106;2023-04-15T03:37:50;11.50;90.40
46356;DHT22;32066;49.474;11.106;2023-04-15T03:40:20;11.50;90.30
46356;DHT22;32066;49.474;11.106;2023-04-15T03:42:49;11.50;90.30
46356;DHT22;32066;49.474;11.106;2023-04-15T03:45:17;11.50;90.40
46356;DHT22;32066;49.474;11.106;2023-04-15T03:47:46;11.50;90.30
46356;DHT22;32066;49.474;11.106;2023-04-15T03:50:15;11.50;90.30
46356;DHT22;32066;49.474;11.106;2023-04-15T03:52:44;11.50;90.30
46356;DHT22;32066;49.474;11.106;2023-04-15T03:55:15;11.50;90.40
46356;DHT22;32066;49.474;11.106;2023-04-15T03:57:44;11.50;90.40
46356;DHT22;32066;49.474;11.106;2023-04-15T04:00:13;11.50;90.40
46356;DHT22;32066;49.474;11.106;2023-04-15T04:02:42;11.50;90.40
46356;DHT22;32066;49.474;11.106;2023-04-15T04:05:10;11.50;90.40
46356;DHT22;32066;49.474;11.106;2023-04-15T04:07:39;11.50;90.40
46356;DHT22;32066;49.474;11.106;2023-04-15T04:10:08;11.50;90.40
46356;DHT22;32066;49.474;11.106;2023-04-15T04:12:40;11.50;90.50
46356;DHT22;32066;49.474;11.106;2023-04-15T04:15:09;11.50;90.40
46356;DHT22;32066;49.474;11.106;2023-04-15T04:17:38;11.50;90.50
46356;DHT22;32066;49.474;11.106;2023-04-15T04:20:07;11.50;90.50
46356;DHT22;32066;49.474;11.106;2023-04-15T04:22:37;11.50;90.50
46356;DHT22;32066;49.474;11.106;2023-04-15T04:25:07;11.50;90.50
46356;DHT22;32066;49.474;11.106;2023-04-15T04:27:39;11.50;90.50
46356;DHT22;32066;49.474;11.106;2023-04-15T04:30:10;11.60;90.50
46356;DHT22;32066;49.474;11.106;2023-04-15T04:32:39;11.50;90.50
46356;DHT22;32066;49.474;11.106;2023-04-15T04:35:08;11.50;90.50
46356;DHT22;32066;49.474;11.106;2023-04-15T04:37:37;11.50;90.50
46356;DHT22;32066;49.474;11.106;2023-04-15T04:40:07;11.50;90.50
46356;DHT22;32066;49.474;11.106;2023-04-15T04:42:38;11.50;90.60
46356;DHT22;32066;49.474;11.106;2023-04-15T04:45:08;11.50;90.60
46356;DHT22;32066;49.474;11.106;2023-04-15T04:47:37;11.50;90.60
46356;DHT22;32066;49.474;11.106;2023-04-15T04:50:07;11.50;90.60
46356;DHT22;32066;49.474;11.106;2023-04-15T04:52:36;11.50;90.60
46356;DHT22;32066;49.474;11.106;2023-04-15T04:55:06;11.50;90.60
46356;DHT22;32066;49.474;11.106;2023-04-15T04:57:35;11.50;90.60
46356;DHT22;32066;49.474;11.106;2023-04-15T05:00:08;11.50;90.60
46356;DHT22;32066;49.474;11.106;2023-04-15T05:02:37;11.50;90.70
46356;DHT22;32066;49.474;11.106;2023-04-15T05:05:07;11.40;90.70
46356;DHT22;32066;49.474;11.106;2023-04-15T05:07:36;11.40;90.70
46356;DHT22;32066;49.474;11.106;2023-04-15T05:10:07;11.40;90.80
46356;DHT22;32066;49.474;11.106;2023-04-15T05:12:36;11.40;90.80
46356;DHT22;32066;49.474;11.106;2023-04-15T05:15:08;11.40;90.80
46356;DHT22;32066;49.474;11.106;2023-04-15T05:17:37;11.40;90.80
46356;DHT22;32066;49.474;11.106;2023-04-15T05:20:07;11.40;90.80
46356;DHT22;32066;49.474;11.106;2023-04-15T05:22:36;11.40;90.80
46356;DHT22;32066;49.474;11.106;2023-04-15T05:25:05;11.40;90.80
46356;DHT22;32066;49.474;11.106;2023-04-15T05:27:34;11.50;90.90
46356;DHT22;32066;49.474;11.106;2023-04-15T05:30:07;11.50;90.80
46356;DHT22;32066;49.474;11.106;2023-04-15T05:32:36;11.50;90.90
46356;DHT22;32066;49.474;11.106;2023-04-15T05:35:05;11.40;90.80
46356;DHT22;32066;49.474;11.106;2023-04-15T05:37:34;11.50;90.90
46356;DHT22;32066;49.474;11.106;2023-04-15T05:40:03;11.50;90.90
46356;DHT22;32066;49.474;11.106;2023-04-15T05:42:32;11.50;90.90
46356;DHT22;32066;49.474;11.106;2023-04-15T05:45:02;11.50;90.80
46356;DHT22;32066;49.474;11.106;2023-04-15T05:47:36;11.50;90.80
46356;DHT22;32066;49.474;11.106;2023-04-15T05:50:06;11.50;90.80
46356;DHT22;32066;49.474;11.106;2023-04-15T05:52:34;11.50;90.90
46356;DHT22;32066;49.474;11.106;2023-04-15T05:55:03;11.50;90.90
46356;DHT22;32066;49.474;11.106;2023-04-15T05:57:32;11.60;90.90
46356;DHT22;32066;49.474;11.106;2023-04-15T06:00:01;11.50;90.90
46356;DHT22;32066;49.474;11.106;2023-04-15T06:02:38;11.60;90.90
46356;DHT22;32066;49.474;11.106;2023-04-15T06:05:07;11.60;90.90
46356;DHT22;32066;49.474;11.106;2023-04-15T06:07:36;11.60;90.90
46356;DHT22;32066;49.474;11.106;2023-04-15T06:10:07;11.60;90.90
46356;DHT22;32066;49.474;11.106;2023-04-15T06:12:36;11.60;90.90
46356;DHT22;32066;49.474;11.106;2023-04-15T06:15:06;11.60;90.90
46356;DHT22;32066;49.474;11.106;2023-04-15T06:17:37;11.60;91.00
46356;DHT22;32066;49.474;11.106;2023-04-15T06:20:07;11.60;91.00
46356;DHT22;32066;49.474;11.106;2023-04-15T06:22:36;11.60;91.00
46356;DHT22;32066;49.474;11.106;2023-04-15T06:25:06;11.60;91.00
46356;DHT22;32066;49.474;11.106;2023-04-15T06:27:35;11.60;91.10
46356;DHT22;32066;49.474;11.106;2023-04-15T06:30:05;11.60;91.00
46356;DHT22;32066;49.474;11.106;2023-04-15T06:32:37;11.60;91.10
46356;DHT22;32066;49.474;11.106;2023-04-15T06:35:06;11.60;91.10
46356;DHT22;32066;49.474;11.106;2023-04-15T06:37:35;11.60;91.20
46356;DHT22;32066;49.474;11.106;2023-04-15T06:40:04;11.60;91.20
46356;DHT22;32066;49.474;11.106;2023-04-15T06:42:35;11.60;91.30
46356;DHT22;32066;49.474;11.106;2023-04-15T06:45:05;11.60;91.30
46356;DHT22;32066;49.474;11.106;2023-04-15T06:47:36;11.60;91.30
46356;DHT22;32066;49.474;11.106;2023-04-15T06:50:07;11.60;91.40
46356;DHT22;32066;49.474;11.106;2023-04-15T06:52:36;11.60;91.40
46356;DHT22;32066;49.474;11.106;2023-04-15T06:55:06;11.60;91.30
46356;DHT22;32066;49.474;11.106;2023-04-15T06:57:35;11.70;91.40
46356;DHT22;32066;49.474;11.106;2023-04-15T07:00:05;11.70;91.40
46356;DHT22;32066;49.474;11.106;2023-04-15T07:02:38;11.80;91.40
46356;DHT22;32066;49.474;11.106;2023-04-15T07:05:07;11.90;91.40
46356;DHT22;32066;49.474;11.106;2023-04-15T07:07:36;11.90;91.40
46356;DHT22;32066;49.474;11.106;2023-04-15T07:10:06;11.90;91.40
46356;DHT22;32066;49.474;11.106;2023-04-15T07:12:36;11.90;91.50
46356;DHT22;32066;49.474;11.106;2023-04-15T07:15:06;12.00;91.90
46356;DHT22;32066;49.474;11.106;2023-04-15T07:17:38;12.00;91.60
46356;DHT22;32066;49.474;11.106;2023-04-15T07:20:08;12.10;91.50
46356;DHT22;32066;49.474;11.106;2023-04-15T07:22:37;12.10;91.70
46356;DHT22;32066;49.474;11.106;2023-04-15T07:25:07;12.20;91.70
46356;DHT22;32066;49.474;11.106;2023-04-15T07:27:36;12.20;91.70
46356;DHT22;32066;49.474;11.106;2023-04-15T07:30:06;12.20;91.70
46356;DHT22;32066;49.474;11.106;2023-04-15T07:32:38;12.30;91.80
46356;DHT22;32066;49.474;11.106;2023-04-15T07:35:07;12.30;92.00
46356;DHT22;32066;49.474;11.106;2023-04-15T07:37:37;12.40;92.00
46356;DHT22;32066;49.474;11.106;2023-04-15T07:40:07;12.40;92.10
46356;DHT22;32066;49.474;11.106;2023-04-15T07:42:36;12.50;91.80
46356;DHT22;32066;49.474;11.106;2023-04-15T07:45:06;12.50;91.70
46356;DHT22;32066;49.474;11.106;2023-04-15T07:47:38;12.60;92.20
46356;DHT22;32066;49.474;11.106;2023-04-15T07:50:09;12.60;92.00
46356;DHT22;32066;49.474;11.106;2023-04-15T07:52:38;12.60;92.00
46356;DHT22;32066;49.474;11.106;2023-04-15T07:55:07;12.70;91.70
46356;DHT22;32066;49.474;11.106;2023-04-15T07:57:36;12.70;91.60
46356;DHT22;32066;49.474;11.106;2023-04-15T08:00:07;12.80;92.40
46356;DHT22;32066;49.474;11.106;2023-04-15T08:02:41;12.80;91.90
46356;DHT22;32066;49.474;11.106;2023-04-15T08:05:12;12.90;91.70
46356;DHT22;32066;49.474;11.106;2023-04-15T08:07:41;12.90;91.50
46356;DHT22;32066;49.474;11.106;2023-04-15T08:10:10;12.90;91.40
46356;DHT22;32066;49.474;11.106;2023-04-15T08:12:38;12.90;91.10
46356;DHT22;32066;49.474;11.106;2023-04-15T08:15:08;12.90;90.70
46356;DHT22;32066;49.474;11.106;2023-04-15T08:17:37;12.90;90.80
46356;DHT22;32066;49.474;11.106;2023-04-15T08:20:10;12.90;90.80
46356;DHT22;32066;49.474;11.106;2023-04-15T08:22:39;12.90;90.60
46356;DHT22;32066;49.474;11.106;2023-04-15T08:25:08;12.90;90.60
46356;DHT22;32066;49.474;11.106;2023-04-15T08:27:37;12.90;90.60
46356;DHT22;32066;49.474;11.106;2023-04-15T08:30:08;12.90;90.60
46356;DHT22;32066;49.474;11.106;2023-04-15T08:32:37;12.90;90.60
46356;DHT22;32066;49.474;11.106;2023-04-15T08:35:09;12.80;90.60
46356;DHT22;32066;49.474;11.106;2023-04-15T08:37:37;12.80;90.60
46356;DHT22;32066;49.474;11.106;2023-04-15T08:40:07;12.80;90.70
46356;DHT22;32066;49.474;11.106;2023-04-15T08:42:40;12.70;90.90
46356;DHT22;32066;49.474;11.106;2023-04-15T08:45:09;12.70;90.70
46356;DHT22;32066;49.474;11.106;2023-04-15T08:47:39;12.80;90.80
46356;DHT22;32066;49.474;11.106;2023-04-15T08:50:10;12.80;90.80
46356;DHT22;32066;49.474;11.106;2023-04-15T08:52:40;12.80;90.80
46356;DHT22;32066;49.474;11.106;2023-04-15T08:55:09;12.80;90.70
46356;DHT22;32066;49.474;11.106;2023-04-15T08:57:40;12.80;90.70
46356;DHT22;32066;49.474;11.106;2023-04-15T09:00:10;12.80;90.90
46356;DHT22;32066;49.474;11.106;2023-04-15T09:02:40;12.80;90.90
46356;DHT22;32066;49.474;11.106;2023-04-15T09:05:11;12.80;90.90
46356;DHT22;32066;49.474;11.106;2023-04-15T09:07:41;12.80;90.80
46356;DHT22;32066;49.474;11.106;2023-04-15T09:10:10;12.80;90.70
46356;DHT22;32066;49.474;11.106;2023-04-15T09:12:39;12.90;90.80
46356;DHT22;32066;49.474;11.106;2023-04-15T09:15:10;12.90;90.70
46356;DHT22;32066;49.474;11.106;2023-04-15T09:17:42;12.90;91.10
46356;DHT22;32066;49.474;11.106;2023-04-15T09:20:15;13.00;91.00
46356;DHT22;32066;49.474;11.106;2023-04-15T09:22:45;13.00;91.10
46356;DHT22;32066;49.474;11.106;2023-04-15T09:25:27;13.00;91.30
46356;DHT22;32066;49.474;11.106;2023-04-15T09:27:59;13.10;91.50
46356;DHT22;32066;49.474;11.106;2023-04-15T09:30:28;13.10;91.30
46356;DHT22;32066;49.474;11.106;2023-04-15T09:32:59;13.10;91.60
46356;DHT22;32066;49.474;11.106;2023-04-15T09:35:32;13.20;91.10
46356;DHT22;32066;49.474;11.106;2023-04-15T09:38:03;13.20;91.10
46356;DHT22;32066;49.474;11.106;2023-04-15T09:40:33;13.20;91.00
46356;DHT22;32066;49.474;11.106;2023-04-15T09:43:03;13.20;91.00
46356;DHT22;32066;49.474;11.106;2023-04-15T09:45:33;13.20;91.00
46356;DHT22;32066;49.474;11.106;2023-04-15T09:48:15;13.20;90.90
46356;DHT22;32066;49.474;11.106;2023-04-15T09:50:48;13.20;90.80
46356;DHT22;32066;49.474;11.106;2023-04-15T09:53:19;13.30;90.80
46356;DHT22;32066;49.474;11.106;2023-04-15T09:55:49;13.30;90.80
46356;DHT22;32066;49.474;11.106;2023-04-15T09:58:19;13.30;90.90
46356;DHT22;32066;49.474;11.106;2023-04-15T10:00:50;13.30;90.90
46356;DHT22;32066;49.474;11.106;2023-04-15T10:03:21;13.30;91.10
46356;DHT22;32066;49.474;11.106;2023-04-15T10:05:55;13.40;90.90
46356;DHT22;32066;49.474;11.106;2023-04-15T10:08:29;13.40;90.70
46356;DHT22;32066;49.474;11.106;2023-04-15T10:10:58;13.40;90.60
46356;DHT22;32066;49.474;11.106;2023-04-15T10:13:30;13.40;90.70
46356;DHT22;32066;49.474;11.106;2023-04-15T10:16:05;13.30;90.70
46356;DHT22;32066;49.474;11.106;2023-04-15T10:18:35;13.30;90.60
46356;DHT22;32066;49.474;11.106;2023-04-15T10:21:08;13.30;90.50
46356;DHT22;32066;49.474;11.106;2023-04-15T10:23:38;13.20;90.50
46356;DHT22;32066;49.474;11.106;2023-04-15T10:26:07;13.20;90.50
46356;DHT22;32066;49.474;11.106;2023-04-15T10:28:37;13.20;90.60
46356;DHT22;32066;49.474;11.106;2023-04-15T10:31:06;13.20;90.90
46356;DHT22;32066;49.474;11.106;2023-04-15T10:33:35;13.20;90.80
46356;DHT22;32066;49.474;11.106;2023-04-15T10:36:07;13.20;90.70
46356;DHT22;32066;49.474;11.106;2023-04-15T10:38:38;13.20;90.60
46356;DHT22;32066;49.474;11.106;2023-04-15T10:41:15;13.20;90.70
46356;DHT22;32066;49.474;11.106;2023-04-15T10:43:49;13.20;90.60
46356;DHT22;32066;49.474;11.106;2023-04-15T10:46:20;13.30;90.60
46356;DHT22;32066;49.474;11.106;2023-04-15T10:48:50;13.30;90.80
46356;DHT22;32066;49.474;11.106;2023-04-15T10:51:31;13.30;90.70
46356;DHT22;32066;49.474;11.106;2023-04-15T10:54:00;13.40;90.90
46356;DHT22;32066;49.474;11.106;2023-04-15T10:56:29;13.50;90.80
46356;DHT22;32066;49.474;11.106;2023-04-15T10:58:59;13.60;91.20
46356;DHT22;32066;49.474;11.106;2023-04-15T11:01:49;13.70;91.20
46356;DHT22;32066;49.474;11.106;2023-04-15T11:07:46;13.90;90.80
46356;DHT22;32066;49.474;11.106;2023-04-15T11:13:25;13.90;90.10
46356;DHT22;32066;49.474;11.106;2023-04-15T11:15:59;13.90;89.70
46356;DHT22;32066;49.474;11.106;2023-04-15T11:18:30;13.90;89.80
46356;DHT22;32066;49.474;11.106;2023-04-15T11:21:00;13.90;89.30
46356;DHT22;32066;49.474;11.106;2023-04-15T11:23:37;13.90;89.30
46356;DHT22;32066;49.474;11.106;2023-04-15T11:26:08;13.90;89.10
46356;DHT22;32066;49.474;11.106;2023-04-15T11:28:39;13.90;89.20
46356;DHT22;32066;49.474;11.106;2023-04-15T11:31:10;13.80;89.20
46356;DHT22;32066;49.474;11.106;2023-04-15T11:33:44;13.80;89.10
46356;DHT22;32066;49.474;11.106;2023-04-15T11:36:14;13.80;89.00
46356;DHT22;32066;49.474;11.106;2023-04-15T11:38:46;13.70;89.10
46356;DHT22;32066;49.474;11.106;2023-04-15T11:41:19;13.70;89.30
46356;DHT22;32066;49.474;11.106;2023-04-15T11:43:49;14.10;99.90
46356;DHT22;32066;49.474;11.106;2023-04-15T11:46:19;14.20;97.80
46356;DHT22;32066;49.474;11.106;2023-04-15T11:48:48;14.20;95.70
46356;DHT22;32066;49.474;11.106;2023-04-15T11:51:17;14.20;95.20
46356;DHT22;32066;49.474;11.106;2023-04-15T11:53:50;14.10;93.30
46356;DHT22;32066;49.474;11.106;2023-04-15T11:56:22;14.10;92.30
46356;DHT22;32066;49.474;11.106;2023-04-15T11:58:53;14.10;92.30
46356;DHT22;32066;49.474;11.106;2023-04-15T12:01:30;14.10;92.00
46356;DHT22;32066;49.474;11.106;2023-04-15T12:03:59;14.10;91.90
46356;DHT22;32066;49.474;11.106;2023-04-15T12:06:31;14.10;91.40
46356;DHT22;32066;49.474;11.106;2023-04-15T12:09:07;14.10;91.00
46356;DHT22;32066;49.474;11.106;2023-04-15T12:11:46;14.10;90.90
46356;DHT22;32066;49.474;11.106;2023-04-15T12:14:19;14.10;90.80
46356;DHT22;32066;49.474;11.106;2023-04-15T12:16:50;14.10;90.50
46356;DHT22;32066;49.474;11.106;2023-04-15T12:19:23;14.10;90.50
46356;DHT22;32066;49.474;11.106;2023-04-15T12:21:56;14.00;90.30
46356;DHT22;32066;49.474;11.106;2023-04-15T12:24:30;14.00;90.20
46356;DHT22;32066;49.474;11.106;2023-04-15T12:27:04;14.00;90.10
46356;DHT22;32066;49.474;11.106;2023-04-15T12:29:34;14.00;90.10
46356;DHT22;32066;49.474;11.106;2023-04-15T12:32:05;14.00;90.10
46356;DHT22;32066;49.474;11.106;2023-04-15T12:34:35;13.90;90.00
46356;DHT22;32066;49.474;11.106;2023-04-15T12:37:07;13.90;90.10
46356;DHT22;32066;49.474;11.106;2023-04-15T12:39:40;13.90;90.10
46356;DHT22;32066;49.474;11.106;2023-04-15T12:42:10;13.90;90.00
46356;DHT22;32066;49.474;11.106;2023-04-15T12:44:39;13.90;89.90
46356;DHT22;32066;49.474;11.106;2023-04-15T12:47:09;14.00;90.00
46356;DHT22;32066;49.474;11.106;2023-04-15T12:49:38;14.00;89.70
46356;DHT22;32066;49.474;11.106;2023-04-15T12:52:07;14.00;89.40
46356;DHT22;32066;49.474;11.106;2023-04-15T12:54:36;13.90;89.40
46356;DHT22;32066;49.474;11.106;2023-04-15T12:57:07;13.90;89.10
46356;DHT22;32066;49.474;11.106;2023-04-15T12:59:36;13.90;89.00
46356;DHT22;32066;49.474;11.106;2023-04-15T13:02:04;13.90;88.80
46356;DHT22;32066;49.474;11.106;2023-04-15T13:04:33;13.90;88.80
46356;DHT22;32066;49.474;11.106;2023-04-15T13:07:02;13.90;89.10
46356;DHT22;32066;49.474;11.106;2023-04-15T13:09:31;13.90;88.90
46356;DHT22;32066;49.474;11.106;2023-04-15T13:12:00;13.80;89.20
46356;DHT22;32066;49.474;11.106;2023-04-15T13:14:32;13.90;89.00
46356;DHT22;32066;49.474;11.106;2023-04-15T13:17:01;13.80;89.00
46356;DHT22;32066;49.474;11.106;2023-04-15T13:19:34;13.80;89.00
46356;DHT22;32066;49.474;11.106;2023-04-15T13:22:03;13.90;94.40
46356;DHT22;32066;49.474;11.106;2023-04-15T13:24:33;14.40;99.90
46356;DHT22;32066;49.474;11.106;2023-04-15T13:27:01;14.80;99.90
46356;DHT22;32066;49.474;11.106;2023-04-15T13:29:33;15.20;99.90
46356;DHT22;32066;49.474;11.106;2023-04-15T13:32:01;15.50;99.90
46356;DHT22;32066;49.474;11.106;2023-04-15T13:34:30;15.80;99.90
46356;DHT22;32066;49.474;11.106;2023-04-15T13:37:05;15.90;99.90
46356;DHT22;32066;49.474;11.106;2023-04-15T13:39:34;15.90;90.50
46356;DHT22;32066;49.474;11.106;2023-04-15T13:42:03;14.50;88.00
46356;DHT22;32066;49.474;11.106;2023-04-15T13:47:03;12.60;90.90
46356;DHT22;32066;49.474;11.106;2023-04-15T13:49:32;12.20;92.30
46356;DHT22;32066;49.474;11.106;2023-04-15T13:52:01;12.00;92.80
46356;DHT22;32066;49.474;11.106;2023-04-15T13:54:29;12.10;92.90
46356;DHT22;32066;49.474;11.106;2023-04-15T13:56:58;12.00;93.10
46356;DHT22;32066;49.474;11.106;2023-04-15T13:59:27;11.90;93.50
46356;DHT22;32066;49.474;11.106;2023-04-15T14:01:58;11.80;93.70
46356;DHT22;32066;49.474;11.106;2023-04-15T14:04:27;11.70;94.50
46356;DHT22;32066;49.474;11.106;2023-04-15T14:06:56;11.60;94.80
46356;DHT22;32066;49.474;11.106;2023-04-15T14:09:24;11.60;94.80
46356;DHT22;32066;49.474;11.106;2023-04-15T14:11:53;11.60;95.30
46356;DHT22;32066;49.474;11.106;2023-04-15T14:14:23;11.60;95.40
46356;DHT22;32066;49.474;11.106;2023-04-15T14:16:52;11.50;95.70
46356;DHT22;32066;49.474;11.106;2023-04-15T14:19:23;11.60;95.70
46356;DHT22;32066;49.474;11.106;2023-04-15T14:21:52;11.50;96.00
46356;DHT22;32066;49.474;11.106;2023-04-15T14:24:21;11.40;96.30
46356;DHT22;32066;49.474;11.106;2023-04-15T14:26:49;11.30;96.60
46356;DHT22;32066;49.474;11.106;2023-04-15T14:29:19;11.40;96.40
46356;DHT22;32066;49.474;11.106;2023-04-15T14:31:47;11.30;96.60
46356;DHT22;32066;49.474;11.106;2023-04-15T14:34:17;11.30;96.60
46356;DHT22;32066;49.474;11.106;2023-04-15T14:36:49;11.20;96.90
46356;DHT22;32066;49.474;11.106;2023-04-15T14:39:18;11.20;97.10
46356;DHT22;32066;49.474;11.106;2023-04-15T14:41:47;11.10;97.40
46356;DHT22;32066;49.474;11.106;2023-04-15T14:44:16;11.00;97.70
46356;DHT22;32066;49.474;11.106;2023-04-15T14:46:45;10.90;98.20
46356;DHT22;32066;49.474;11.106;2023-04-15T14:49:14;11.00;98.30
46356;DHT22;32066;49.474;11.106;2023-04-15T14:51:43;11.00;98.30
46356;DHT22;32066;49.474;11.106;2023-04-15T14:54:15;11.20;97.90
46356;DHT22;32066;49.474;11.106;2023-04-15T14:56:44;11.40;97.40
46356;DHT22;32066;49.474;11.106;2023-04-15T14:59:13;11.30;97.40
46356;DHT22;32066;49.474;11.106;2023-04-15T15:01:41;11.20;97.50
46356;DHT22;32066;49.474;11.106;2023-04-15T15:04:11;11.20;97.60
46356;DHT22;32066;49.474;11.106;2023-04-15T15:06:41;11.00;98.20
46356;DHT22;32066;49.474;11.106;2023-04-15T15:09:09;11.10;97.70
46356;DHT22;32066;49.474;11.106;2023-04-15T15:11:40;11.30;97.50
46356;DHT22;32066;49.474;11.106;2023-04-15T15:14:09;11.10;97.60
46356;DHT22;32066;49.474;11.106;2023-04-15T15:16:38;11.10;97.90
46356;DHT22;32066;49.474;11.106;2023-04-15T15:19:07;11.20;97.90
46356;DHT22;32066;49.474;11.106;2023-04-15T15:21:35;11.30;97.60
46356;DHT22;32066;49.474;11.106;2023-04-15T15:24:05;11.20;97.70
46356;DHT22;32066;49.474;11.106;2023-04-15T15:26:33;11.00;98.10
46356;DHT22;32066;49.474;11.106;2023-04-15T15:29:05;11.10;98.00
46356;DHT22;32066;49.474;11.106;2023-04-15T15:31:33;11.10;97.90
46356;DHT22;32066;49.474;11.106;2023-04-15T15:34:02;11.10;97.80
46356;DHT22;32066;49.474;11.106;2023-04-15T15:36:31;11.00;98.30
46356;DHT22;32066;49.474;11.106;2023-04-15T15:39:00;10.90;98.40
46356;DHT22;32066;49.474;11.106;2023-04-15T15:41:29;11.00;98.10